RUNWAY INFORMATION
Runway Length Width Elevation Displaced
Threshold
Heading | Runway Length Width Elevation Displaced
Threshold
Heading
09 7200 ft 150 ft 176 ft 0 ft 91 | 27 7200 ft 150 ft 171 ft 0 ft 271

 AIRPORT FREQUENCIES
Type FSS Name KOROR RDO Frequency 123.6 MHZ

 AIRPORT NEAR NAVIGATION AIDS
Type NDB-DME Name Koror Frequency 371 KHZ

 METAR AND TAF INFORMATION
METAR FOR PTRO
ADDS - METARS form results

(0617 UTC 23 April 2021)
Data provider http://aviationweather.gov/metar/data/
 
Forecast for: PTRO (BABELTHUAP/KOROR, FM)
Text: PTRO 230538Z 2306/2406 23010KT P6SM VCSH SCT016 SCT120
Forecast period: 0600 UTC 23 April 2021 to 0600 UTC 24 April 2021
Forecast type: FROM: standard forecast or significant change
Winds: from the SW (230 degrees) at 12 MPH (10 knots; 5.1 m/s)
Visibility: 6 or more miles (10+ km)
Ceiling: at least 12,000 feet AGL
Clouds: scattered clouds at 1600 feet AGL
scattered clouds at 12000 feet AGL
Weather: VCSH  (showers in vicinity)



© 2013 - 2021, FlightSimLog.org - Powered by Virtual Airlines Manager